Terminal Aerodrome Forecast
Issued by NWS

Home | Current Version | Previous Version | Text Only | Print | Product List | Glossary Off
Versions: 1 2 3 4 5 6 7 8 9 10 11 12 13 14 15 16 17 18 19 20 21 22 23 24 25 26

538
FTUS43 KABR 282303 AAB
TAFPIR
TAF AMD
KPIR 282303Z 2823/2918 27009KT 6SM -SHRA BKN040 OVC060
      TEMPO 2823/2901 1 1/2SM +SHRA BKN050 OVC070
     FM290100 07009KT P6SM SCT060 SCT080 BKN100
     FM291300 11009KT P6SM BKN070=

USA.gov is the U.S. government's official web portal to all federal, state and local government web resources and services.